createdAt,value
2023-02-02T00:01:59.992Z,100128.69
2023-02-02T00:04:29.003Z,100118.50
2023-02-02T00:06:58.750Z,100122.03
2023-02-02T00:09:30.042Z,100121.66
2023-02-02T00:11:57.077Z,100126.91
2023-02-02T00:14:23.986Z,100127.66
2023-02-02T00:16:54.752Z,100128.47
2023-02-02T00:19:26.212Z,100126.16
2023-02-02T00:21:54.007Z,100117.47
2023-02-02T00:24:20.886Z,100117.47
2023-02-02T00:26:56.191Z,100121.44
2023-02-02T00:29:25.461Z,100115.22
2023-02-02T00:31:52.254Z,100127.66
2023-02-02T00:34:19.166Z,100123.00
2023-02-02T00:36:46.323Z,100123.22
2023-02-02T00:39:15.952Z,100126.09
2023-02-02T00:41:42.509Z,100123.09
2023-02-02T00:44:27.344Z,100123.09
2023-02-02T00:46:53.764Z,100124.13
2023-02-02T00:49:20.265Z,100125.78
2023-02-02T00:51:46.708Z,100130.75
2023-02-02T00:54:14.338Z,100124.00
2023-02-02T00:56:41.415Z,100131.31
2023-02-02T00:59:07.972Z,100122.88
2023-02-02T01:01:34.694Z,100131.78
2023-02-02T01:04:01.574Z,100135.31
2023-02-02T01:06:28.441Z,100132.66
2023-02-02T01:08:54.950Z,100132.47
2023-02-02T01:11:21.554Z,100132.00
2023-02-02T01:13:48.044Z,100147.53
2023-02-02T01:16:15.787Z,100133.78
2023-02-02T01:18:42.472Z,100143.47
2023-02-02T01:21:10.767Z,100142.69
2023-02-02T01:23:38.168Z,100147.78
2023-02-02T01:26:07.968Z,100141.38
2023-02-02T01:28:34.791Z,100141.38
2023-02-02T01:31:12.382Z,100138.59
2023-02-02T01:33:39.462Z,100142.13
2023-02-02T01:36:09.721Z,100134.50
2023-02-02T01:38:36.695Z,100136.03
2023-02-02T01:41:04.598Z,100132.47
2023-02-02T01:43:30.936Z,100127.38
2023-02-02T01:45:58.628Z,100131.84
2023-02-02T01:48:29.471Z,100129.38
2023-02-02T01:50:59.956Z,100127.59
2023-02-02T01:53:26.427Z,100134.25
2023-02-02T01:55:53.135Z,100142.91
2023-02-02T01:58:24.782Z,100138.69
2023-02-02T02:00:51.876Z,100137.25
2023-02-02T02:03:21.650Z,100137.16
2023-02-02T02:05:55.201Z,100145.81
2023-02-02T02:08:31.981Z,100135.75
2023-02-02T02:10:58.405Z,100133.81
2023-02-02T02:13:46.363Z,100139.06
2023-02-02T02:16:42.235Z,100122.09
2023-02-02T02:20:05.130Z,100107.84
2023-02-02T02:23:15.961Z,100115.09
2023-02-02T02:26:13.129Z,100130.06
2023-02-02T02:28:57.163Z,100130.72
2023-02-02T02:31:42.513Z,100132.47
2023-02-02T02:34:27.021Z,100136.94
2023-02-02T02:37:07.630Z,100128.94
2023-02-02T02:39:39.406Z,100140.91
2023-02-02T02:42:20.035Z,100143.94
2023-02-02T02:44:48.379Z,100138.69
2023-02-02T02:47:14.910Z,100150.81
2023-02-02T02:49:46.168Z,100141.84
2023-02-02T02:52:12.942Z,100139.81
2023-02-02T02:54:55.775Z,100140.94
2023-02-02T02:57:34.169Z,100143.63
2023-02-02T03:00:26.849Z,100141.06
2023-02-02T03:03:09.229Z,100149.34
2023-02-02T03:05:35.603Z,100147.47
2023-02-02T03:08:20.403Z,100152.28
2023-02-02T03:10:47.402Z,100145.81
2023-02-02T03:13:14.836Z,100152.03
2023-02-02T03:15:43.001Z,100149.50
2023-02-02T03:18:09.627Z,100157.16
2023-02-02T03:20:36.355Z,100152.19
2023-02-02T03:23:02.821Z,100142.06
2023-02-02T03:25:29.257Z,100138.53
2023-02-02T03:27:55.680Z,100138.53
2023-02-02T03:30:22.363Z,100133.19
2023-02-02T03:32:49.629Z,100132.16
2023-02-02T03:35:16.057Z,100141.59
2023-02-02T03:37:42.424Z,100140.03
2023-02-02T03:40:09.641Z,100140.19
2023-02-02T03:42:36.049Z,100145.16
2023-02-02T03:45:02.549Z,100138.53
2023-02-02T03:47:30.822Z,100145.38
2023-02-02T03:49:57.320Z,100140.72
2023-02-02T03:52:24.017Z,100146.94
2023-02-02T03:54:50.503Z,100140.84
2023-02-02T03:57:16.912Z,100146.94
2023-02-02T03:59:44.636Z,100153.59
2023-02-02T04:02:11.054Z,100149.25
2023-02-02T04:04:37.468Z,100150.25
2023-02-02T04:07:03.884Z,100151.06
2023-02-02T04:09:30.344Z,100153.69
2023-02-02T04:11:56.821Z,100161.25
2023-02-02T04:14:23.220Z,100163.16
2023-02-02T04:16:49.797Z,100164.13
2023-02-02T04:19:16.997Z,100161.25
2023-02-02T04:21:43.574Z,100164.66
2023-02-02T04:24:13.982Z,100164.94
2023-02-02T04:26:40.933Z,100174.25
2023-02-02T04:29:07.744Z,100173.72
2023-02-02T04:31:34.257Z,100166.91
2023-02-02T04:34:00.988Z,100164.66
2023-02-02T04:36:27.462Z,100165.56
2023-02-02T04:38:55.292Z,100164.03
2023-02-02T04:41:22.515Z,100169.16
2023-02-02T04:43:49.079Z,100158.94
2023-02-02T04:46:15.656Z,100169.16
2023-02-02T04:48:42.279Z,100162.03
2023-02-02T04:51:11.344Z,100162.47
2023-02-02T04:53:37.854Z,100161.25
2023-02-02T04:56:14.684Z,100170.66
2023-02-02T04:58:41.415Z,100170.03
2023-02-02T05:01:20.710Z,100171.56
2023-02-02T05:03:48.006Z,100182.81
2023-02-02T05:06:16.047Z,100176.66
2023-02-02T05:08:43.297Z,100178.09
2023-02-02T05:11:11.176Z,100184.47
2023-02-02T05:13:37.685Z,100188.78
2023-02-02T05:16:04.376Z,100181.00
2023-02-02T05:18:31.774Z,100184.69
2023-02-02T05:21:02.504Z,100187.25
2023-02-02T05:23:29.185Z,100191.81
2023-02-02T05:25:55.944Z,100208.66
2023-02-02T05:28:22.870Z,100202.03
2023-02-02T05:30:49.674Z,100209.69
2023-02-02T05:33:18.304Z,100215.78
2023-02-02T05:35:48.638Z,100211.44
2023-02-02T05:38:15.776Z,100210.44
2023-02-02T05:40:42.402Z,100223.44
2023-02-02T05:43:08.843Z,100222.44
2023-02-02T05:45:35.323Z,100218.88
2023-02-02T05:48:01.795Z,100220.44
2023-02-02T05:50:28.217Z,100216.97
2023-02-02T05:52:54.669Z,100222.09
2023-02-02T05:55:21.327Z,100229.31
2023-02-02T05:57:47.746Z,100234.41
2023-02-02T06:00:14.507Z,100242.88
2023-02-02T06:02:40.920Z,100244.63
2023-02-02T06:05:07.754Z,100247.75
2023-02-02T06:07:34.171Z,100251.06
2023-02-02T06:10:00.608Z,100253.47
2023-02-02T06:12:27.005Z,100258.56
2023-02-02T06:14:53.400Z,100259.22
2023-02-02T06:17:19.855Z,100262.50
2023-02-02T06:19:46.266Z,100261.50
2023-02-02T06:22:12.687Z,100262.16
2023-02-02T06:24:39.154Z,100270.56
2023-02-02T06:27:05.572Z,100266.84
2023-02-02T06:29:31.961Z,100252.28
2023-02-02T06:31:58.564Z,100255.72
2023-02-02T06:34:25.113Z,100244.22
2023-02-02T06:36:51.565Z,100248.97
2023-02-02T06:39:18.096Z,100248.72
2023-02-02T06:41:46.522Z,100241.06
2023-02-02T06:44:15.230Z,100252.19
2023-02-02T06:46:42.436Z,100261.97
2023-02-02T06:49:09.084Z,100245.66
2023-02-02T06:51:35.620Z,100245.41
2023-02-02T06:54:03.824Z,100248.31
2023-02-02T06:56:30.403Z,100246.66
2023-02-02T06:58:56.835Z,100243.09
2023-02-02T07:01:23.311Z,100245.94
2023-02-02T07:03:51.040Z,100245.41
2023-02-02T07:06:28.588Z,100246.41
2023-02-02T07:09:02.553Z,100243.63
2023-02-02T07:11:36.554Z,100232.88
2023-02-02T07:14:05.589Z,100237.75
2023-02-02T07:16:32.069Z,100244.63
2023-02-02T07:18:58.503Z,100237.53
2023-02-02T07:21:29.279Z,100237.53
2023-02-02T07:23:55.770Z,100243.31
2023-02-02T07:26:22.321Z,100240.19
2023-02-02T07:28:48.770Z,100234.97
2023-02-02T07:31:24.170Z,100242.72
2023-02-02T07:33:51.190Z,100244.38
2023-02-02T07:36:19.875Z,100250.81
2023-02-02T07:38:47.842Z,100258.56
2023-02-02T07:41:15.215Z,100253.38
2023-02-02T07:43:41.851Z,100265.59
2023-02-02T07:46:10.124Z,100271.22
2023-02-02T07:48:37.082Z,100274.13
2023-02-02T07:51:05.567Z,100287.38
2023-02-02T07:53:33.043Z,100293.13
2023-02-02T07:56:10.360Z,100303.59
2023-02-02T07:58:37.201Z,100307.69
2023-02-02T08:01:05.359Z,100311.25
2023-02-02T08:03:31.891Z,100317.88
2023-02-02T08:05:59.409Z,100325.53
2023-02-02T08:08:25.876Z,100335.47
2023-02-02T08:10:53.881Z,100321.69
2023-02-02T08:13:20.943Z,100323.47
2023-02-02T08:15:47.430Z,100316.41
2023-02-02T08:18:13.874Z,100313.19
2023-02-02T08:20:40.303Z,100316.00
2023-02-02T08:23:13.402Z,100314.00
2023-02-02T08:25:40.062Z,100321.75
2023-02-02T08:28:06.488Z,100321.50
2023-02-02T08:30:34.891Z,100323.53
2023-02-02T08:33:01.321Z,100330.84
2023-02-02T08:35:27.775Z,100323.31
2023-02-02T08:37:54.211Z,100324.72
2023-02-02T08:40:20.660Z,100329.94
2023-02-02T08:42:51.041Z,100331.97
2023-02-02T08:46:12.663Z,100339.28
2023-02-02T08:48:11.581Z,100332.16
2023-02-02T08:50:39.001Z,100335.31
2023-02-02T08:53:05.456Z,100347.03
2023-02-02T08:55:31.883Z,100343.44
2023-02-02T08:57:58.273Z,100344.63
2023-02-02T09:00:24.750Z,100336.44
2023-02-02T09:02:51.622Z,100328.78
2023-02-02T09:05:20.771Z,100329.78
2023-02-02T09:07:49.132Z,100329.00
2023-02-02T09:10:16.131Z,100319.13
2023-02-02T09:12:42.531Z,100322.81
2023-02-02T09:15:09.309Z,100319.72
2023-02-02T09:17:35.694Z,100322.66
2023-02-02T09:20:02.328Z,100337.31
2023-02-02T09:22:29.054Z,100335.06
2023-02-02T09:24:55.566Z,100337.97
2023-02-02T09:27:22.034Z,100346.31
2023-02-02T09:29:48.817Z,100346.53
2023-02-02T09:32:15.293Z,100352.53
2023-02-02T09:34:41.676Z,100361.06
2023-02-02T09:37:08.193Z,100354.44
2023-02-02T09:39:34.613Z,100362.09
2023-02-02T09:42:29.350Z,100358.13
2023-02-02T09:45:03.896Z,100357.97
2023-02-02T09:47:30.252Z,100359.69
2023-02-02T09:50:29.715Z,100358.13
2023-02-02T09:53:12.899Z,100368.63
2023-02-02T09:55:48.608Z,100380.84
2023-02-02T09:58:27.878Z,100392.63
2023-02-02T10:01:08.589Z,100390.28
2023-02-02T10:03:45.692Z,100394.28
2023-02-02T10:06:26.705Z,100394.41
2023-02-02T10:08:56.236Z,100397.72
2023-02-02T10:11:31.067Z,100383.97
2023-02-02T10:14:02.525Z,100374.19
2023-02-02T10:16:30.285Z,100384.88
2023-02-02T10:19:04.559Z,100371.13
2023-02-02T10:21:34.026Z,100388.22
2023-02-02T10:24:03.107Z,100390.75
2023-02-02T10:26:53.828Z,100395.09
2023-02-02T10:29:26.237Z,100395.34
2023-02-02T10:32:25.190Z,100400.69
2023-02-02T10:35:03.454Z,100408.03
2023-02-02T10:37:37.907Z,100409.78
2023-02-02T10:40:30.440Z,100414.00
2023-02-02T10:43:33.515Z,100408.34
2023-02-02T10:46:00.373Z,100414.50
2023-02-02T10:48:32.674Z,100411.94
2023-02-02T10:51:03.280Z,100409.59
2023-02-02T10:53:30.438Z,100416.25
2023-02-02T10:56:00.799Z,100419.06
2023-02-02T10:58:32.040Z,100420.81
2023-02-02T11:01:00.099Z,100427.84
2023-02-02T11:03:32.090Z,100425.47
2023-02-02T11:06:18.727Z,100438.69
2023-02-02T11:08:46.487Z,100436.22
2023-02-02T11:11:19.290Z,100432.91
2023-02-02T11:13:50.068Z,100423.16
2023-02-02T11:16:16.489Z,100421.63
2023-02-02T11:18:44.236Z,100419.75
2023-02-02T11:21:34.113Z,100423.66
2023-02-02T11:24:03.098Z,100428.34
2023-02-02T11:27:20.787Z,100434.19
2023-02-02T11:29:52.505Z,100423.94
2023-02-02T11:32:39.283Z,100425.06
2023-02-02T11:35:08.432Z,100426.28
2023-02-02T11:37:36.802Z,100424.19
2023-02-02T11:40:32.653Z,100415.16
2023-02-02T11:43:00.991Z,100407.72
2023-02-02T11:45:33.499Z,100419.97
2023-02-02T11:48:14.127Z,100423.56
2023-02-02T11:50:49.274Z,100419.19
2023-02-02T11:53:23.346Z,100408.44
2023-02-02T11:55:49.870Z,100407.91
2023-02-02T11:58:29.990Z,100403.78
2023-02-02T12:01:02.246Z,100398.47
2023-02-02T12:03:38.095Z,100400.25
2023-02-02T12:06:38.178Z,100402.69
2023-02-02T12:09:13.496Z,100392.47
2023-02-02T12:11:45.886Z,100391.78
2023-02-02T12:14:21.838Z,100388.78
2023-02-02T12:16:55.850Z,100386.22
2023-02-02T12:19:35.534Z,100387.69
2023-02-02T12:22:10.461Z,100390.03
2023-02-02T12:25:16.116Z,100391.34
2023-02-02T12:27:54.449Z,100393.03
2023-02-02T12:30:50.210Z,100394.22
2023-02-02T12:33:31.075Z,100393.47
2023-02-02T12:35:57.416Z,100391.44
2023-02-02T12:38:36.076Z,100391.44
2023-02-02T12:41:02.370Z,100379.44
2023-02-02T12:43:40.662Z,100385.56
2023-02-02T12:46:19.560Z,100383.22
2023-02-02T12:48:51.222Z,100385.69
2023-02-02T12:51:20.656Z,100386.31
2023-02-02T12:54:34.669Z,100377.56
2023-02-02T12:57:30.820Z,100380.25
2023-02-02T13:00:15.966Z,100387.34
2023-02-02T13:03:07.052Z,100391.59
2023-02-02T13:05:55.598Z,100386.03
2023-02-02T13:08:26.669Z,100390.03
2023-02-02T13:10:57.250Z,100393.34
2023-02-02T13:13:31.359Z,100390.03
2023-02-02T13:16:06.151Z,100385.25
2023-02-02T13:18:37.108Z,100392.44
2023-02-02T13:21:08.258Z,100392.72
2023-02-02T13:23:40.894Z,100382.00
2023-02-02T13:26:15.201Z,100390.34
2023-02-02T13:28:48.368Z,100388.78
2023-02-02T13:31:19.906Z,100388.00
2023-02-02T13:33:53.214Z,100384.47
2023-02-02T13:36:25.904Z,100387.78
2023-02-02T13:39:03.700Z,100394.03
2023-02-02T13:41:31.373Z,100388.00
2023-02-02T13:44:03.761Z,100381.34
2023-02-02T13:46:53.481Z,100381.00
2023-02-02T13:49:25.559Z,100386.00
2023-02-02T13:52:08.574Z,100385.78
2023-02-02T13:54:59.886Z,100386.91
2023-02-02T13:57:54.273Z,100387.34
2023-02-02T14:00:24.328Z,100381.44
2023-02-02T14:02:59.953Z,100394.22
2023-02-02T14:05:39.205Z,100390.44
2023-02-02T14:08:16.343Z,100389.69
2023-02-02T14:10:45.326Z,100390.00
2023-02-02T14:13:36.632Z,100390.91
2023-02-02T14:16:07.847Z,100401.13
2023-02-02T14:18:53.636Z,100402.34
2023-02-02T14:21:32.363Z,100402.00
2023-02-02T14:24:27.565Z,100398.69
2023-02-02T14:26:54.710Z,100405.50
2023-02-02T14:29:33.526Z,100410.53
2023-02-02T14:32:04.577Z,100415.75
2023-02-02T14:34:41.673Z,100414.94
2023-02-02T14:37:20.575Z,100423.28
2023-02-02T14:40:05.389Z,100423.41
2023-02-02T14:43:15.309Z,100425.84
2023-02-02T14:45:43.231Z,100431.94
2023-02-02T14:48:14.169Z,100441.53
2023-02-02T14:50:46.746Z,100440.41
2023-02-02T14:53:13.150Z,100448.72
2023-02-02T14:56:02.966Z,100447.28
2023-02-02T14:58:34.019Z,100442.19
2023-02-02T15:01:09.490Z,100441.06
2023-02-02T15:03:54.206Z,100439.41
2023-02-02T15:06:26.813Z,100445.19
2023-02-02T15:09:26.571Z,100449.00
2023-02-02T15:12:00.786Z,100445.41
2023-02-02T15:14:55.482Z,100456.31
2023-02-02T15:17:27.907Z,100468.97
2023-02-02T15:20:13.180Z,100471.13
2023-02-02T15:22:58.350Z,100480.97
2023-02-02T15:25:31.079Z,100474.38
2023-02-02T15:28:22.466Z,100476.41
2023-02-02T15:30:53.076Z,100485.69
2023-02-02T15:33:31.819Z,100491.28
2023-02-02T15:35:59.854Z,100481.06
2023-02-02T15:38:34.000Z,100489.78
2023-02-02T15:41:24.772Z,100503.69
2023-02-02T15:43:52.434Z,100503.69
2023-02-02T15:46:28.263Z,100503.06
2023-02-02T15:49:36.017Z,100507.28
2023-02-02T15:52:11.670Z,100502.34
2023-02-02T15:54:38.217Z,100505.19
2023-02-02T15:57:22.274Z,100519.00
2023-02-02T15:59:49.386Z,100514.94
2023-02-02T16:02:21.091Z,100524.16
2023-02-02T16:04:47.574Z,100520.47
2023-02-02T16:07:18.897Z,100525.44
2023-02-02T16:09:45.429Z,100538.00
2023-02-02T16:12:19.917Z,100539.03
2023-02-02T16:14:48.295Z,100539.84
2023-02-02T16:17:27.893Z,100551.09
2023-02-02T16:20:04.058Z,100541.16
2023-02-02T16:22:31.181Z,100540.72
2023-02-02T16:25:00.727Z,100543.19
2023-02-02T16:27:29.364Z,100541.25
2023-02-02T16:30:00.707Z,100551.19
2023-02-02T16:32:30.047Z,100549.19
2023-02-02T16:34:57.293Z,100554.41
2023-02-02T16:37:29.498Z,100553.78
2023-02-02T16:39:57.341Z,100561.59
2023-02-02T16:42:29.028Z,100558.53
2023-02-02T16:44:59.875Z,100555.22
2023-02-02T16:47:26.238Z,100567.25
2023-02-02T16:49:53.419Z,100580.16
2023-02-02T16:52:21.635Z,100572.09
2023-02-02T16:54:55.520Z,100575.91
2023-02-02T16:57:26.389Z,100582.19
2023-02-02T16:59:58.494Z,100577.22
2023-02-02T17:02:30.637Z,100577.84
2023-02-02T17:05:21.418Z,100586.78
2023-02-02T17:07:54.760Z,100599.53
2023-02-02T17:10:24.779Z,100588.41
2023-02-02T17:12:51.213Z,100583.06
2023-02-02T17:15:17.531Z,100592.53
2023-02-02T17:17:45.224Z,100602.50
2023-02-02T17:20:12.786Z,100595.09
2023-02-02T17:22:45.269Z,100585.78
2023-02-02T17:25:22.435Z,100587.84
2023-02-02T17:27:49.042Z,100579.78
2023-02-02T17:30:18.964Z,100577.63
2023-02-02T17:32:45.507Z,100578.72
2023-02-02T17:35:15.756Z,100577.72
2023-02-02T17:37:42.175Z,100580.28
2023-02-02T17:40:19.099Z,100591.78
2023-02-02T17:42:48.357Z,100594.06
2023-02-02T17:45:20.145Z,100592.53
2023-02-02T17:47:46.543Z,100609.66
2023-02-02T17:50:13.025Z,100602.50
2023-02-02T17:52:39.494Z,100608.50
2023-02-02T17:55:14.400Z,100604.00
2023-02-02T17:57:41.066Z,100612.22
2023-02-02T18:00:08.102Z,100606.97
2023-02-02T18:02:35.046Z,100605.97
2023-02-02T18:05:02.970Z,100608.63
2023-02-02T18:07:29.429Z,100617.34
2023-02-02T18:09:55.889Z,100621.13
2023-02-02T18:12:22.378Z,100610.69
2023-02-02T18:14:49.107Z,100615.78
2023-02-02T18:17:15.499Z,100609.38
2023-02-02T18:19:45.015Z,100612.97
2023-02-02T18:22:13.638Z,100613.97
2023-02-02T18:24:40.799Z,100614.88
2023-02-02T18:27:08.334Z,100614.22
2023-02-02T18:29:34.843Z,100604.81
2023-02-02T18:32:01.599Z,100607.97
2023-02-02T18:34:32.439Z,100615.13
2023-02-02T18:36:58.898Z,100620.25
2023-02-02T18:39:25.600Z,100620.13
2023-02-02T18:41:52.132Z,100621.66
2023-02-02T18:44:18.814Z,100624.19
2023-02-02T18:46:45.244Z,100625.50
2023-02-02T18:49:11.714Z,100628.53
2023-02-02T18:51:38.168Z,100624.34
2023-02-02T18:54:04.704Z,100629.31
2023-02-02T18:56:31.268Z,100633.00
2023-02-02T18:58:58.479Z,100629.19
2023-02-02T19:01:26.040Z,100620.13
2023-02-02T19:03:54.687Z,100625.59
2023-02-02T19:06:39.807Z,100629.19
2023-02-02T19:09:06.598Z,100625.84
2023-02-02T19:11:44.459Z,100627.00
2023-02-02T19:14:16.973Z,100619.22
2023-02-02T19:16:44.740Z,100622.44
2023-02-02T19:19:21.879Z,100613.22
2023-02-02T19:21:48.374Z,100612.81
2023-02-02T19:24:14.856Z,100621.38
2023-02-02T19:26:45.852Z,100622.44
2023-02-02T19:29:23.613Z,100621.28
2023-02-02T19:31:56.769Z,100619.06
2023-02-02T19:34:23.390Z,100620.63
2023-02-02T19:36:51.124Z,100620.47
2023-02-02T19:39:20.933Z,100615.78
2023-02-02T19:41:47.840Z,100617.19
2023-02-02T19:44:19.626Z,100616.78
2023-02-02T19:46:48.938Z,100616.28
2023-02-02T19:49:31.725Z,100617.03
2023-02-02T19:51:59.116Z,100616.94
2023-02-02T19:54:36.655Z,100626.75
2023-02-02T19:57:33.325Z,100619.34
2023-02-02T20:00:01.593Z,100621.91
2023-02-02T20:02:42.186Z,100620.66
2023-02-02T20:05:11.681Z,100623.84
2023-02-02T20:07:38.878Z,100622.78
2023-02-02T20:10:21.772Z,100628.94
2023-02-02T20:12:49.065Z,100628.41
2023-02-02T20:15:34.783Z,100629.69
2023-02-02T20:18:04.587Z,100634.41
2023-02-02T20:20:40.849Z,100633.50
2023-02-02T20:23:22.368Z,100640.31
2023-02-02T20:25:48.819Z,100633.91
2023-02-02T20:28:41.412Z,100636.47
2023-02-02T20:31:09.923Z,100636.97
2023-02-02T20:33:36.885Z,100640.28
2023-02-02T20:36:50.349Z,100650.78
2023-02-02T20:39:28.549Z,100646.28
2023-02-02T20:41:57.135Z,100652.03
2023-02-02T20:44:25.745Z,100646.69
2023-02-02T20:46:52.573Z,100637.22
2023-02-02T20:49:20.695Z,100648.34
2023-02-02T20:51:47.306Z,100645.13
2023-02-02T20:54:13.713Z,100641.56
2023-02-02T20:56:41.137Z,100649.50
2023-02-02T20:59:07.634Z,100643.13
2023-02-02T21:01:34.203Z,100652.44
2023-02-02T21:04:00.731Z,100646.19
2023-02-02T21:06:28.715Z,100653.59
2023-02-02T21:08:55.294Z,100649.47
2023-02-02T21:11:21.818Z,100651.28
2023-02-02T21:13:50.100Z,100642.72
2023-02-02T21:16:16.730Z,100643.88
2023-02-02T21:18:47.171Z,100647.19
2023-02-02T21:21:15.981Z,100656.63
2023-02-02T21:23:46.933Z,100649.22
2023-02-02T21:26:14.387Z,100650.75
2023-02-02T21:28:40.988Z,100651.78
2023-02-02T21:31:09.370Z,100645.41
2023-02-02T21:33:36.378Z,100648.97
2023-02-02T21:36:36.491Z,100648.31
2023-02-02T21:39:29.575Z,100659.19
2023-02-02T21:42:08.031Z,100653.44
2023-02-02T21:44:36.413Z,100652.94
2023-02-02T21:47:02.902Z,100648.31
2023-02-02T21:49:38.818Z,100647.41
2023-02-02T21:52:15.455Z,100643.88
2023-02-02T21:54:42.252Z,100640.03
2023-02-02T21:57:21.635Z,100644.50
2023-02-02T21:59:54.779Z,100654.59
2023-02-02T22:02:37.038Z,100641.16
2023-02-02T22:05:13.684Z,100633.66
2023-02-02T22:07:41.792Z,100644.25
2023-02-02T22:10:29.723Z,100643.88
2023-02-02T22:12:56.208Z,100637.84
2023-02-02T22:15:25.743Z,100630.19
2023-02-02T22:17:52.258Z,100629.81
2023-02-02T22:20:34.668Z,100634.03
2023-02-02T22:23:02.418Z,100643.63
2023-02-02T22:25:34.391Z,100639.25
2023-02-02T22:28:27.911Z,100643.13
2023-02-02T22:30:56.049Z,100634.41
2023-02-02T22:33:23.249Z,100647.31
2023-02-02T22:35:49.797Z,100647.19
2023-02-02T22:38:21.761Z,100653.94
2023-02-02T22:40:49.150Z,100647.31
2023-02-02T22:43:16.571Z,100654.84
2023-02-02T22:45:46.712Z,100661.00
2023-02-02T22:48:14.535Z,100660.19
2023-02-02T22:50:41.213Z,100644.63
2023-02-02T22:53:07.677Z,100650.25
2023-02-02T22:55:34.150Z,100654.34
2023-02-02T22:58:00.850Z,100665.19
2023-02-02T23:00:29.339Z,100666.84
2023-02-02T23:02:56.656Z,100669.91
2023-02-02T23:05:24.147Z,100680.13
2023-02-02T23:07:50.601Z,100676.81
2023-02-02T23:10:19.332Z,100683.72
2023-02-02T23:12:46.241Z,100675.16
2023-02-02T23:15:13.861Z,100688.03
2023-02-02T23:17:40.422Z,100682.44
2023-02-02T23:20:11.479Z,100687.03
2023-02-02T23:22:37.974Z,100686.03
2023-02-02T23:25:05.189Z,100686.13
2023-02-02T23:27:31.765Z,100677.22
2023-02-02T23:29:58.188Z,100681.91
2023-02-02T23:32:24.658Z,100686.63
2023-02-02T23:34:51.094Z,100678.34
2023-02-02T23:37:17.784Z,100690.84
2023-02-02T23:39:44.207Z,100699.41
2023-02-02T23:42:10.763Z,100691.09
2023-02-02T23:44:37.394Z,100687.78
2023-02-02T23:47:04.161Z,100682.19
2023-02-02T23:49:34.335Z,100688.19
2023-02-02T23:52:01.019Z,100672.97
2023-02-02T23:54:28.322Z,100671.97
2023-02-02T23:56:55.251Z,100656.38
2023-02-02T23:59:21.661Z,100675.28
